Time;durP1;ratioP1;P1;durP2;ratioP2;P2;SDS_P1;SDS_P2;PMS_P1;PMS_P2;Temp;Humidity;BMP_temperature;BMP_pressure;BME280_temperature;BME280_humidity;BME280_pressure;Samples;Min_cycle;Max_cycle;Signal;HPM_P1;HPM_P2
2024/04/20 00:00:40;;;;;;;13.85;11.95;;;4.70;99.90;;;;;;5376494;26;20007;-79
2024/04/20 00:03:10;;;;;;;20.38;11.82;;;4.70;99.90;;;;;;5292334;26;20008;-78
2024/04/20 00:05:38;;;;;;;14.35;11.75;;;4.70;99.90;;;;;;5349620;26;20114;-78
2024/04/20 00:08:06;;;;;;;17.50;12.55;;;4.60;99.90;;;;;;5293181;26;20004;-78
2024/04/20 00:10:34;;;;;;;18.88;11.85;;;4.70;99.90;;;;;;5304485;26;20048;-80
2024/04/20 00:13:04;;;;;;;15.07;11.10;;;4.70;99.90;;;;;;5328460;26;20007;-80
2024/04/20 00:15:32;;;;;;;15.05;11.35;;;4.80;99.90;;;;;;5303441;26;20028;-77
2024/04/20 00:17:59;;;;;;;16.40;10.82;;;4.70;99.90;;;;;;5355967;26;20014;-79
2024/04/20 00:20:31;;;;;;;12.50;9.52;;;4.70;99.90;;;;;;5352008;26;20459;-77
2024/04/20 00:23:01;;;;;;;10.23;9.43;;;4.70;99.90;;;;;;5366032;26;20395;-76
2024/04/20 00:25:35;;;;;;;12.27;11.05;;;4.60;99.90;;;;;;5349988;26;20455;-77
2024/04/20 00:28:02;;;;;;;11.27;9.82;;;4.60;99.90;;;;;;5382163;26;20008;-76
2024/04/20 00:30:29;;;;;;;12.30;11.25;;;4.60;99.90;;;;;;5355122;26;20006;-77
2024/04/20 00:32:57;;;;;;;12.05;10.93;;;4.60;99.90;;;;;;5399909;26;20075;-75
2024/04/20 00:35:25;;;;;;;12.50;11.50;;;4.60;99.90;;;;;;5436725;26;20463;-77
2024/04/20 00:37:52;;;;;;;13.50;11.63;;;4.60;99.90;;;;;;5359234;26;22793;-76
2024/04/20 00:40:19;;;;;;;13.82;12.63;;;4.60;99.90;;;;;;5389510;26;20497;-77
2024/04/20 00:42:47;;;;;;;13.07;11.70;;;4.60;99.90;;;;;;5386582;26;20071;-77
2024/04/20 00:45:14;;;;;;;13.07;12.20;;;4.60;99.90;;;;;;5390945;26;19999;-77
2024/04/20 00:47:41;;;;;;;13.27;12.27;;;4.50;99.90;;;;;;5382742;26;20687;-76
2024/04/20 00:50:10;;;;;;;13.75;12.65;;;4.60;99.90;;;;;;5390468;26;20427;-77
2024/04/20 00:52:38;;;;;;;12.95;11.88;;;4.60;99.90;;;;;;5390809;26;20048;-77
2024/04/20 00:55:05;;;;;;;13.88;12.80;;;4.60;99.90;;;;;;5386482;26;19999;-77
2024/04/20 00:57:33;;;;;;;14.15;12.88;;;4.60;99.90;;;;;;5389704;26;20015;-76
2024/04/20 01:00:02;;;;;;;22.45;13.13;;;4.60;99.90;;;;;;5376250;26;20007;-77
2024/04/20 01:02:31;;;;;;;13.73;12.73;;;4.60;99.90;;;;;;5355814;26;20115;-77
2024/04/20 01:04:58;;;;;;;13.70;12.50;;;4.60;99.90;;;;;;5388936;26;20000;-77
2024/04/20 01:07:26;;;;;;;13.10;11.90;;;4.60;99.90;;;;;;5338292;26;20018;-77
2024/04/20 01:09:53;;;;;;;13.00;11.80;;;4.70;99.90;;;;;;5337774;26;20015;-77
2024/04/20 01:12:21;;;;;;;12.68;10.88;;;4.70;99.90;;;;;;5387112;26;20774;-77
2024/04/20 01:14:49;;;;;;;10.98;10.00;;;4.60;99.90;;;;;;5354712;26;20031;-77
2024/04/20 01:17:16;;;;;;;11.32;9.98;;;4.60;99.90;;;;;;5388262;26;20046;-77
2024/04/20 01:19:43;;;;;;;14.95;11.68;;;4.60;99.90;;;;;;5385797;26;20035;-79
2024/04/20 01:22:12;;;;;;;14.95;11.63;;;4.60;99.90;;;;;;5389717;26;20008;-77
2024/04/20 01:24:40;;;;;;;14.20;11.45;;;4.60;99.90;;;;;;5345542;26;20058;-77
2024/04/20 01:27:09;;;;;;;13.25;10.95;;;4.60;99.90;;;;;;5377525;26;19991;-77
2024/04/20 01:29:36;;;;;;;14.73;10.98;;;4.60;99.90;;;;;;5374260;26;20011;-78
2024/04/20 01:32:04;;;;;;;18.25;13.65;;;4.50;99.90;;;;;;5381498;26;20003;-79
2024/04/20 01:34:32;;;;;;;11.50;10.38;;;4.50;99.90;;;;;;5324275;26;19995;-78
2024/04/20 01:37:01;;;;;;;14.30;10.50;;;4.50;99.90;;;;;;5405199;26;19999;-77
2024/04/20 01:39:28;;;;;;;11.88;10.75;;;4.50;99.90;;;;;;5386599;26;20015;-77
2024/04/20 01:41:55;;;;;;;15.63;10.95;;;4.40;99.90;;;;;;5376366;26;20295;-78
2024/04/20 01:44:25;;;;;;;11.20;10.00;;;4.40;99.90;;;;;;5374211;26;19996;-78
2024/04/20 01:46:54;;;;;;;11.98;10.77;;;4.40;99.90;;;;;;5390512;26;20241;-78
2024/04/20 01:49:24;;;;;;;11.05;10.10;;;4.40;99.90;;;;;;5410983;26;19987;-79
2024/04/20 01:51:51;;;;;;;11.40;10.32;;;4.40;99.90;;;;;;5376837;26;20062;-77
2024/04/20 01:54:18;;;;;;;11.35;9.77;;;4.40;99.90;;;;;;5404317;26;20003;-77
2024/04/20 01:56:48;;;;;;;11.23;10.23;;;4.40;99.90;;;;;;5383967;26;20022;-77
2024/04/20 01:59:16;;;;;;;12.45;10.88;;;4.40;99.90;;;;;;5377948;26;20398;-78
2024/04/20 02:01:47;;;;;;;12.95;10.02;;;4.30;99.90;;;;;;5361953;26;20031;-77
2024/04/20 02:04:16;;;;;;;12.18;10.55;;;4.30;99.90;;;;;;5402246;26;20743;-77
2024/04/20 02:06:43;;;;;;;13.32;11.00;;;4.30;99.90;;;;;;5388018;26;20011;-78
2024/04/20 02:09:11;;;;;;;11.98;10.93;;;4.30;99.90;;;;;;5384325;26;20027;-78
2024/04/20 02:11:41;;;;;;;11.27;10.10;;;4.30;99.90;;;;;;5388102;26;20003;-78
2024/04/20 02:14:10;;;;;;;11.30;10.20;;;4.30;99.90;;;;;;5400108;26;20817;-77
2024/04/20 02:16:40;;;;;;;11.50;10.43;;;4.30;99.90;;;;;;5301386;26;20019;-77
2024/04/20 02:19:11;;;;;;;13.93;10.65;;;4.20;99.90;;;;;;5361297;26;20119;-78
2024/04/20 02:21:38;;;;;;;16.70;11.32;;;4.10;99.90;;;;;;5341464;26;20022;-77
2024/04/20 02:24:06;;;;;;;11.75;10.75;;;4.10;99.90;;;;;;5323309;26;20012;-78
2024/04/20 02:26:34;;;;;;;12.68;11.52;;;4.10;99.90;;;;;;5356651;26;20060;-76
2024/04/20 02:29:02;;;;;;;13.93;10.48;;;4.10;99.90;;;;;;5343802;26;21036;-78
2024/04/20 02:31:30;;;;;;;11.15;10.13;;;4.10;99.90;;;;;;5344192;26;20004;-79
2024/04/20 02:33:58;;;;;;;11.95;10.93;;;4.00;99.90;;;;;;5361746;26;20000;-77
2024/04/20 02:36:27;;;;;;;11.93;11.02;;;4.00;99.90;;;;;;5364461;26;19996;-78
2024/04/20 02:38:56;;;;;;;12.35;11.13;;;3.90;99.90;;;;;;5366653;26;20478;-77
2024/04/20 02:41:23;;;;;;;12.55;11.32;;;3.90;99.90;;;;;;5357157;26;20485;-77
2024/04/20 02:43:51;;;;;;;12.55;11.27;;;3.80;99.90;;;;;;5354939;26;20010;-77
2024/04/20 02:46:27;;;;;;;12.40;11.20;;;3.70;99.90;;;;;;5352047;26;20001;-77
2024/04/20 02:48:55;;;;;;;14.02;11.30;;;3.70;99.90;;;;;;5342776;26;20012;-77
2024/04/20 02:51:22;;;;;;;14.10;11.63;;;3.60;99.90;;;;;;5346589;26;20027;-77
2024/04/20 02:53:49;;;;;;;13.48;10.05;;;3.50;99.90;;;;;;5373247;26;20055;-78
2024/04/20 02:56:16;;;;;;;11.50;10.50;;;3.40;99.90;;;;;;5345016;26;20023;-78
2024/04/20 02:58:43;;;;;;;11.15;9.57;;;3.30;99.90;;;;;;5335194;26;20055;-77
2024/04/20 03:01:10;;;;;;;11.77;10.82;;;3.30;99.90;;;;;;5390200;26;20040;-78
2024/04/20 03:03:42;;;;;;;12.32;11.10;;;3.30;99.90;;;;;;5354612;26;20008;-78
2024/04/20 03:06:11;;;;;;;12.65;10.93;;;3.10;99.90;;;;;;5379933;26;20003;-77
2024/04/20 03:08:38;;;;;;;15.00;10.70;;;3.10;99.90;;;;;;5383309;26;20025;-76
2024/04/20 03:11:05;;;;;;;13.57;10.35;;;3.00;99.90;;;;;;5382167;26;20011;-78
2024/04/20 03:13:32;;;;;;;11.60;10.02;;;3.00;99.90;;;;;;5405288;26;20013;-78
2024/04/20 03:16:00;;;;;;;17.63;10.55;;;2.90;99.90;;;;;;5375110;26;20004;-79
2024/04/20 03:18:30;;;;;;;13.35;10.55;;;2.80;99.90;;;;;;5375560;26;19998;-78
2024/04/20 03:20:59;;;;;;;14.88;11.02;;;2.70;99.90;;;;;;5271077;26;20024;-79
2024/04/20 03:23:29;;;;;;;11.38;10.18;;;2.80;99.90;;;;;;5262675;27;20045;-79
2024/04/20 03:25:57;;;;;;;11.55;10.23;;;2.80;99.90;;;;;;5241705;26;20012;-79
2024/04/20 03:28:26;;;;;;;14.00;9.90;;;2.70;99.90;;;;;;5216352;27;20117;-78
2024/04/20 03:30:53;;;;;;;14.88;11.07;;;2.70;99.90;;;;;;5268476;26;20012;-78
2024/04/20 03:33:22;;;;;;;11.98;10.52;;;2.60;99.90;;;;;;5218544;27;20852;-78
2024/04/20 03:35:56;;;;;;;19.00;10.98;;;2.60;99.90;;;;;;5245868;26;20014;-78
2024/04/20 03:38:27;;;;;;;13.82;10.05;;;2.60;99.90;;;;;;5233756;27;20035;-78
2024/04/20 03:40:54;;;;;;;16.52;9.98;;;2.50;99.90;;;;;;5249032;26;20081;-77
2024/04/20 03:43:21;;;;;;;16.73;10.57;;;2.50;99.90;;;;;;5217518;27;21137;-79
2024/04/20 03:45:53;;;;;;;16.08;11.10;;;2.50;99.90;;;;;;5289424;26;20406;-78
2024/04/20 03:48:21;;;;;;;17.08;10.18;;;2.40;99.90;;;;;;5414437;26;20071;-79
2024/04/20 03:50:57;;;;;;;11.60;10.13;;;2.40;99.90;;;;;;5379550;26;20000;-77
2024/04/20 03:53:24;;;;;;;28.67;11.15;;;2.40;99.90;;;;;;5399830;26;20003;-78
2024/04/20 03:55:55;;;;;;;15.23;9.85;;;2.30;99.90;;;;;;5380526;26;20018;-78
2024/04/20 03:58:23;;;;;;;13.75;9.98;;;2.30;99.90;;;;;;5373841;26;20113;-78
2024/04/20 04:00:50;;;;;;;12.30;10.52;;;2.30;99.90;;;;;;5385140;26;20208;-79
2024/04/20 04:03:24;;;;;;;17.13;12.38;;;2.30;99.90;;;;;;5385351;26;20079;-79
2024/04/20 04:05:53;;;;;;;14.30;10.57;;;2.30;99.90;;;;;;5371993;26;19996;-78
2024/04/20 04:08:23;;;;;;;16.63;12.07;;;2.30;99.90;;;;;;5386002;26;20509;-78
2024/04/20 04:10:50;;;;;;;18.92;12.15;;;2.20;99.90;;;;;;5400759;26;20503;-78
2024/04/20 04:13:17;;;;;;;18.33;12.68;;;2.20;99.90;;;;;;5386687;26;20060;-78
2024/04/20 04:15:47;;;;;;;19.23;13.30;;;2.20;99.90;;;;;;5368374;26;20075;-77
2024/04/20 04:18:15;;;;;;;18.45;11.45;;;2.20;99.90;;;;;;5373130;26;20753;-77
2024/04/20 04:20:42;;;;;;;14.50;12.35;;;2.10;99.90;;;;;;5380075;26;20392;-77
2024/04/20 04:23:11;;;;;;;14.10;11.68;;;2.10;99.90;;;;;;5353675;26;20003;-77
2024/04/20 04:25:38;;;;;;;19.25;12.63;;;2.20;99.90;;;;;;5352743;26;20003;-77
2024/04/20 04:28:05;;;;;;;16.55;11.75;;;2.10;99.90;;;;;;5379399;26;20032;-77
2024/04/20 04:30:34;;;;;;;25.00;13.00;;;2.10;99.90;;;;;;5356001;26;20063;-77
2024/04/20 04:33:02;;;;;;;14.57;13.10;;;2.10;99.90;;;;;;5385805;26;19995;-77
2024/04/20 04:35:30;;;;;;;19.42;14.32;;;2.10;99.90;;;;;;5386115;26;20000;-77
2024/04/20 04:37:58;;;;;;;18.45;13.77;;;2.10;99.90;;;;;;5379457;26;20398;-77
2024/04/20 04:40:25;;;;;;;17.55;13.02;;;2.10;99.90;;;;;;5392808;26;21511;-78
2024/04/20 04:42:53;;;;;;;19.80;12.48;;;2.00;99.90;;;;;;5382214;26;20007;-76
2024/04/20 04:45:23;;;;;;;15.60;14.13;;;2.10;99.90;;;;;;5384563;26;20008;-77
2024/04/20 04:47:50;;;;;;;16.20;14.45;;;2.10;99.90;;;;;;5392790;26;20012;-77
2024/04/20 04:50:18;;;;;;;15.60;14.10;;;2.00;99.90;;;;;;5410009;26;20013;-77
2024/04/20 04:52:45;;;;;;;16.15;14.45;;;2.00;99.90;;;;;;5383281;26;20012;-76
2024/04/20 04:55:12;;;;;;;16.33;14.73;;;2.00;99.90;;;;;;5375915;26;20014;-77
2024/04/20 04:57:39;;;;;;;16.63;14.85;;;2.00;99.90;;;;;;5379500;26;20675;-78
2024/04/20 05:00:07;;;;;;;17.38;15.30;;;2.10;99.90;;;;;;5381948;26;20004;-78
2024/04/20 05:02:35;;;;;;;19.55;15.43;;;2.10;99.90;;;;;;5386832;26;20003;-77
2024/04/20 05:05:03;;;;;;;19.02;15.07;;;2.10;99.90;;;;;;5383088;26;20013;-77
2024/04/20 05:07:30;;;;;;;20.00;15.10;;;2.10;99.90;;;;;;5383511;26;20077;-77
2024/04/20 05:09:57;;;;;;;21.23;15.63;;;2.30;99.90;;;;;;5383875;26;19999;-77
2024/04/20 05:12:24;;;;;;;16.33;14.73;;;2.30;99.90;;;;;;5389618;26;20027;-76
2024/04/20 05:14:54;;;;;;;17.80;14.48;;;2.30;99.90;;;;;;5384830;26;20026;-77
2024/04/20 05:17:21;;;;;;;16.15;14.57;;;2.40;99.90;;;;;;5347414;26;20665;-76
2024/04/20 05:19:48;;;;;;;15.43;13.85;;;2.50;99.90;;;;;;5382790;26;20015;-78
2024/04/20 05:22:15;;;;;;;21.83;15.45;;;2.50;99.90;;;;;;5365947;26;21950;-77
2024/04/20 05:24:42;;;;;;;15.77;14.18;;;2.60;99.90;;;;;;5389759;26;19999;-77
2024/04/20 05:27:09;;;;;;;17.73;14.90;;;2.70;99.90;;;;;;5388228;26;20027;-76
2024/04/20 05:29:37;;;;;;;15.80;14.15;;;2.80;99.90;;;;;;5374971;26;20035;-77
2024/04/20 05:32:05;;;;;;;18.25;13.57;;;2.90;99.90;;;;;;5384823;26;20076;-76
2024/04/20 05:34:32;;;;;;;16.25;14.55;;;3.00;99.90;;;;;;5395189;26;20013;-76
2024/04/20 05:36:59;;;;;;;23.05;14.25;;;3.10;99.90;;;;;;5378594;26;20478;-78
2024/04/20 05:39:27;;;;;;;25.60;13.88;;;3.20;99.90;;;;;;5382293;26;20012;-76
2024/04/20 05:41:54;;;;;;;16.17;14.65;;;3.30;99.90;;;;;;5388504;26;21663;-77
2024/04/20 05:44:24;;;;;;;16.85;15.38;;;3.30;99.90;;;;;;5352263;26;20008;-76
2024/04/20 05:46:51;;;;;;;19.08;16.20;;;3.50;99.90;;;;;;5353692;26;20564;-78
2024/04/20 05:49:18;;;;;;;18.05;16.35;;;3.60;99.90;;;;;;5392886;26;20000;-76
2024/04/20 05:51:45;;;;;;;18.73;16.58;;;3.80;99.90;;;;;;5362213;26;20553;-77
2024/04/20 05:54:14;;;;;;;18.23;16.63;;;3.90;99.90;;;;;;5383004;26;20003;-77
2024/04/20 05:56:41;;;;;;;20.85;15.60;;;4.00;99.90;;;;;;5389315;26;20008;-76
2024/04/20 05:59:08;;;;;;;18.27;16.55;;;4.10;99.90;;;;;;5322849;26;20019;-77
2024/04/20 06:01:37;;;;;;;18.63;17.52;;;4.10;99.90;;;;;;5394050;26;20436;-75
2024/04/20 06:04:05;;;;;;;19.45;17.60;;;4.10;99.90;;;;;;5384709;26;20076;-77
2024/04/20 06:06:33;;;;;;;20.77;18.83;;;4.20;99.90;;;;;;5385826;26;19999;-76
2024/04/20 06:09:01;;;;;;;20.27;18.88;;;4.20;99.90;;;;;;5378435;26;20096;-76
2024/04/20 06:11:30;;;;;;;20.88;18.95;;;4.20;99.90;;;;;;5383483;26;19996;-77
2024/04/20 06:13:57;;;;;;;21.17;19.13;;;4.30;99.90;;;;;;5394287;26;20605;-78
2024/04/20 06:16:25;;;;;;;21.15;19.55;;;4.30;99.90;;;;;;5379655;26;20004;-78
2024/04/20 06:18:53;;;;;;;22.40;20.70;;;4.40;99.90;;;;;;5382882;26;20019;-77
2024/04/20 06:21:21;;;;;;;20.40;18.83;;;4.30;99.90;;;;;;5385403;26;20676;-77
2024/04/20 06:23:49;;;;;;;21.90;20.15;;;4.40;99.90;;;;;;5364133;26;20741;-77
2024/04/20 06:26:16;;;;;;;23.05;21.13;;;4.40;99.90;;;;;;5384815;26;20003;-77
2024/04/20 06:28:46;;;;;;;22.45;20.40;;;4.50;99.90;;;;;;5378728;26;20007;-77
2024/04/20 06:31:13;;;;;;;24.02;22.42;;;4.70;99.90;;;;;;5323575;26;20007;-80
2024/04/20 06:33:40;;;;;;;22.48;20.58;;;4.90;99.90;;;;;;5397103;26;20764;-76
2024/04/20 06:36:08;;;;;;;24.83;22.98;;;5.10;99.90;;;;;;5382091;26;20000;-76
2024/04/20 06:38:35;;;;;;;25.90;24.42;;;5.20;99.90;;;;;;5321348;26;20007;-76
2024/04/20 06:41:03;;;;;;;28.27;26.42;;;5.40;99.90;;;;;;5349713;26;20007;-78
2024/04/20 06:43:30;;;;;;;27.73;25.90;;;5.50;99.90;;;;;;5350714;26;20008;-75
2024/04/20 06:45:57;;;;;;;28.63;26.30;;;5.50;99.90;;;;;;5349186;26;20022;-77
2024/04/20 06:48:27;;;;;;;24.70;22.83;;;5.40;99.90;;;;;;5314070;26;20008;-76
2024/04/20 06:50:54;;;;;;;25.83;23.73;;;5.40;99.90;;;;;;5351056;26;20041;-76
2024/04/20 06:53:21;;;;;;;24.65;22.52;;;5.40;99.90;;;;;;5349845;26;20005;-77
2024/04/20 06:55:59;;;;;;;24.42;22.38;;;5.40;99.90;;;;;;5342429;26;20016;-77
2024/04/20 06:58:28;;;;;;;24.33;22.60;;;5.20;99.90;;;;;;5339524;26;20004;-76
2024/04/20 07:00:55;;;;;;;24.00;21.70;;;5.20;99.90;;;;;;5350677;26;20023;-78
2024/04/20 07:03:24;;;;;;;25.15;22.92;;;5.10;99.90;;;;;;5347986;26;21307;-75
2024/04/20 07:05:56;;;;;;;24.50;22.90;;;5.10;99.90;;;;;;5347978;26;20005;-76
2024/04/20 07:08:23;;;;;;;24.83;23.10;;;5.30;99.90;;;;;;5350465;26;20064;-76
2024/04/20 07:10:54;;;;;;;23.65;22.08;;;5.20;99.90;;;;;;5347583;26;20048;-78
2024/04/20 07:13:21;;;;;;;23.58;21.73;;;5.20;99.90;;;;;;5346472;26;20000;-77
2024/04/20 07:15:49;;;;;;;23.90;21.58;;;5.20;99.90;;;;;;5334451;26;20016;-77
2024/04/20 07:18:17;;;;;;;21.98;20.45;;;5.30;99.90;;;;;;5332208;26;20004;-76
2024/04/20 07:20:44;;;;;;;23.80;21.20;;;5.40;99.90;;;;;;5349392;26;19999;-77
2024/04/20 07:23:11;;;;;;;25.08;22.92;;;5.30;99.90;;;;;;5377076;26;20638;-78
2024/04/20 07:25:40;;;;;;;23.40;21.55;;;5.30;99.90;;;;;;5385652;26;19999;-77
2024/04/20 07:28:08;;;;;;;22.73;20.90;;;5.40;99.90;;;;;;5382606;26;20008;-77
2024/04/20 07:30:36;;;;;;;23.35;21.60;;;5.30;99.90;;;;;;5387388;26;21335;-77
2024/04/20 07:33:03;;;;;;;22.75;20.85;;;5.40;99.90;;;;;;5388753;26;20487;-77
2024/04/20 07:35:30;;;;;;;22.63;20.83;;;5.30;99.90;;;;;;5355650;26;20007;-77
2024/04/20 07:37:57;;;;;;;23.30;21.60;;;5.40;99.90;;;;;;5385148;26;20003;-75
2024/04/20 07:40:25;;;;;;;22.23;20.13;;;5.40;99.90;;;;;;5383394;26;20070;-77
2024/04/20 07:42:54;;;;;;;24.85;22.70;;;5.60;99.90;;;;;;5380209;26;20015;-76
2024/04/20 07:45:21;;;;;;;25.15;22.58;;;5.70;99.90;;;;;;5382868;26;20000;-77
2024/04/20 07:47:48;;;;;;;22.75;20.75;;;5.80;99.90;;;;;;5382035;26;20700;-77
2024/04/20 07:50:15;;;;;;;23.42;21.90;;;6.20;99.90;;;;;;5381809;26;20015;-77
2024/04/20 07:52:42;;;;;;;29.77;27.77;;;6.50;99.90;;;;;;5380456;26;20003;-78
2024/04/20 07:55:09;;;;;;;30.40;28.60;;;6.70;99.90;;;;;;5391440;26;19999;-79
2024/04/20 07:57:37;;;;;;;25.05;23.15;;;7.00;99.90;;;;;;5382138;26;20951;-76
2024/04/20 08:00:04;;;;;;;26.80;25.10;;;7.40;99.90;;;;;;5375343;26;20585;-77
2024/04/20 08:02:32;;;;;;;27.48;25.45;;;7.50;99.90;;;;;;5383890;26;20000;-78
2024/04/20 08:05:02;;;;;;;24.50;22.77;;;7.10;99.90;;;;;;5328453;26;19996;-77
2024/04/20 08:07:29;;;;;;;25.92;23.67;;;7.10;99.90;;;;;;5380976;26;20030;-76
2024/04/20 08:09:56;;;;;;;25.00;22.88;;;7.10;99.90;;;;;;5386295;26;20011;-78
2024/04/20 08:12:24;;;;;;;25.42;23.33;;;6.70;99.90;;;;;;5383552;26;20055;-77
2024/04/20 08:14:52;;;;;;;24.23;22.33;;;6.40;99.90;;;;;;5390154;26;20042;-78
2024/04/20 08:17:19;;;;;;;23.83;21.65;;;6.20;99.90;;;;;;5381902;26;20000;-77
2024/04/20 08:19:46;;;;;;;23.77;21.48;;;6.10;99.90;;;;;;5380792;26;20018;-77
2024/04/20 08:22:13;;;;;;;24.98;22.63;;;5.90;99.90;;;;;;5362634;26;20038;-77
2024/04/20 08:24:40;;;;;;;23.85;21.75;;;5.80;99.90;;;;;;5367794;26;20003;-77
2024/04/20 08:27:08;;;;;;;22.33;20.40;;;5.70;99.90;;;;;;5397889;26;20000;-78
2024/04/20 08:29:37;;;;;;;22.42;20.33;;;5.70;99.90;;;;;;5393790;26;20019;-76
2024/04/20 08:32:04;;;;;;;22.95;20.92;;;5.70;99.90;;;;;;5391036;26;20018;-75
2024/04/20 08:34:31;;;;;;;23.95;22.05;;;5.80;99.90;;;;;;5393356;26;20011;-77
2024/04/20 08:36:58;;;;;;;25.35;23.23;;;5.70;99.90;;;;;;5395944;26;20006;-78
2024/04/20 08:39:30;;;;;;;25.30;21.88;;;5.70;99.90;;;;;;5365675;26;20003;-77
2024/04/20 08:42:23;;;;;;;24.15;22.10;;;5.80;99.90;;;;;;5380594;26;20347;-77
2024/04/20 08:44:55;;;;;;;26.42;23.75;;;5.80;99.90;;;;;;5386312;26;20721;-77
2024/04/20 08:47:23;;;;;;;24.35;22.20;;;5.90;99.90;;;;;;5404463;26;19995;-78
2024/04/20 08:49:51;;;;;;;24.45;22.75;;;6.00;99.90;;;;;;5411361;26;20003;-75
2024/04/20 08:52:21;;;;;;;26.08;23.92;;;6.30;99.90;;;;;;5407493;26;20014;-77
2024/04/20 08:54:51;;;;;;;26.73;23.95;;;6.60;99.90;;;;;;5405851;26;20011;-78
2024/04/20 08:57:22;;;;;;;26.92;24.40;;;6.70;99.90;;;;;;5379643;26;20004;-77
2024/04/20 08:59:51;;;;;;;29.75;27.75;;;6.80;99.90;;;;;;5344239;26;20081;-76
2024/04/20 09:02:27;;;;;;;31.75;29.40;;;7.20;99.90;;;;;;5349152;26;20423;-76
2024/04/20 09:04:58;;;;;;;34.25;31.98;;;7.40;99.90;;;;;;5383720;26;20013;-77
2024/04/20 09:07:26;;;;;;;35.58;33.35;;;7.50;99.90;;;;;;5374501;26;20469;-78
2024/04/20 09:09:54;;;;;;;35.72;32.90;;;7.80;99.90;;;;;;5380146;26;20011;-78
2024/04/20 09:12:21;;;;;;;39.35;36.65;;;8.20;99.90;;;;;;5385363;26;20081;-77
2024/04/20 09:14:53;;;;;;;41.75;39.45;;;8.50;99.90;;;;;;5377427;26;20031;-77
2024/04/20 09:17:22;;;;;;;39.38;36.85;;;8.70;99.90;;;;;;5375665;26;20494;-76
2024/04/20 09:19:50;;;;;;;35.80;33.35;;;8.80;99.90;;;;;;5379496;26;20000;-77
2024/04/20 09:22:18;;;;;;;37.03;34.65;;;8.80;99.90;;;;;;5414942;26;20010;-77
2024/04/20 09:24:45;;;;;;;40.22;37.95;;;8.50;99.90;;;;;;5392404;26;20584;-75
2024/04/20 09:27:15;;;;;;;39.30;36.95;;;8.10;99.90;;;;;;5409252;26;20011;-77
2024/04/20 09:29:44;;;;;;;40.75;38.17;;;8.20;99.90;;;;;;5347217;26;21245;-76
2024/04/20 09:32:12;;;;;;;34.17;32.17;;;8.20;99.90;;;;;;5331448;26;20011;-77
2024/04/20 09:34:47;;;;;;;36.92;34.58;;;8.20;99.90;;;;;;5352585;26;19996;-78
2024/04/20 09:37:15;;;;;;;37.70;35.50;;;8.00;99.90;;;;;;5373371;26;20008;-76
2024/04/20 09:39:45;;;;;;;37.08;34.97;;;7.80;99.90;;;;;;5388411;26;20010;-76
2024/04/20 09:42:17;;;;;;;36.05;33.38;;;7.50;99.90;;;;;;5380054;26;20011;-77
2024/04/20 09:44:44;;;;;;;33.47;31.05;;;7.20;99.90;;;;;;5386088;26;20773;-77
2024/04/20 09:47:14;;;;;;;32.05;29.85;;;7.00;99.90;;;;;;5401392;26;20003;-76
2024/04/20 09:49:48;;;;;;;32.70;30.77;;;6.80;99.90;;;;;;5380934;26;20447;-77
2024/04/20 09:52:33;;;;;;;32.53;30.52;;;6.70;99.90;;;;;;5383467;26;20374;-78
2024/04/20 09:55:06;;;;;;;35.78;33.47;;;6.60;99.90;;;;;;5388306;26;20000;-76
2024/04/20 09:57:37;;;;;;;32.92;30.92;;;6.60;99.90;;;;;;5381412;26;20045;-77
2024/04/20 10:00:07;;;;;;;30.58;28.38;;;6.50;99.90;;;;;;5383071;26;20023;-77
2024/04/20 10:02:36;;;;;;;31.85;29.63;;;6.50;99.90;;;;;;5316131;26;20000;-77
2024/04/20 10:05:04;;;;;;;31.25;28.90;;;6.60;99.90;;;;;;5318952;26;20009;-78
2024/04/20 10:07:33;;;;;;;31.02;28.50;;;6.70;99.90;;;;;;5337404;26;20023;-77
2024/04/20 10:10:02;;;;;;;31.45;29.30;;;6.80;99.90;;;;;;5349103;26;20056;-78
2024/04/20 10:12:30;;;;;;;32.80;30.55;;;6.90;99.90;;;;;;5355797;26;20014;-77
2024/04/20 10:14:57;;;;;;;32.42;30.33;;;6.80;99.90;;;;;;5327239;26;19996;-78
2024/04/20 10:17:26;;;;;;;32.55;30.48;;;6.90;99.90;;;;;;5337613;26;20768;-79
2024/04/20 10:19:56;;;;;;;36.80;34.47;;;7.30;99.90;;;;;;5413895;26;20004;-79
2024/04/20 10:22:23;;;;;;;35.25;33.13;;;7.70;99.90;;;;;;5380500;26;19999;-76
2024/04/20 10:25:00;;;;;;;34.03;31.98;;;8.30;99.90;;;;;;5389500;26;20004;-77
2024/04/20 10:27:31;;;;;;;34.50;32.40;;;8.30;99.90;;;;;;5353265;26;20126;-78
2024/04/20 10:30:19;;;;;;;33.78;31.58;;;8.40;99.90;;;;;;5357055;26;20012;-78
2024/04/20 10:33:02;;;;;;;35.17;33.03;;;8.40;99.90;;;;;;5375987;26;20013;-77
2024/04/20 10:35:31;;;;;;;34.35;32.08;;;8.40;99.90;;;;;;5342736;26;20012;-78
2024/04/20 10:38:03;;;;;;;31.50;29.73;;;8.20;99.90;;;;;;5357206;26;20052;-77
2024/04/20 10:40:32;;;;;;;32.53;29.60;;;8.10;99.90;;;;;;5344693;26;20000;-78
2024/04/20 10:43:12;;;;;;;33.70;31.50;;;7.70;99.90;;;;;;5344002;26;19996;-78
2024/04/20 10:45:40;;;;;;;34.40;32.13;;;7.70;99.90;;;;;;5338351;26;20535;-77
2024/04/20 10:48:16;;;;;;;33.08;30.90;;;7.60;99.90;;;;;;5347200;26;20467;-76
2024/04/20 10:50:44;;;;;;;32.67;30.58;;;7.60;99.90;;;;;;5343864;26;20019;-77
2024/04/20 10:53:16;;;;;;;31.10;29.10;;;7.90;99.90;;;;;;5350959;26;20000;-76
2024/04/20 10:55:43;;;;;;;34.58;32.70;;;8.00;99.90;;;;;;5341840;26;20892;-76
2024/04/20 10:58:10;;;;;;;35.95;33.70;;;8.10;99.90;;;;;;5362237;26;20013;-77
2024/04/20 11:00:37;;;;;;;33.53;31.38;;;8.10;99.90;;;;;;5350357;26;20040;-78
2024/04/20 11:03:06;;;;;;;32.95;30.73;;;8.40;99.90;;;;;;5391252;26;20795;-78
2024/04/20 11:05:33;;;;;;;34.42;32.28;;;8.50;99.90;;;;;;5343021;26;20015;-78
2024/04/20 11:08:01;;;;;;;35.47;33.20;;;8.70;99.90;;;;;;5342649;26;20000;-79
2024/04/20 11:10:29;;;;;;;33.80;31.27;;;9.00;99.90;;;;;;5347748;26;20119;-79
2024/04/20 11:13:04;;;;;;;38.72;36.38;;;9.10;99.90;;;;;;5342499;26;20050;-78
2024/04/20 11:15:34;;;;;;;37.40;35.20;;;9.30;99.90;;;;;;5340079;26;20463;-77
2024/04/20 11:18:02;;;;;;;34.90;32.70;;;9.30;99.90;;;;;;5318832;26;19999;-78
2024/04/20 11:20:31;;;;;;;33.92;31.92;;;9.50;99.90;;;;;;5344331;26;20012;-79
2024/04/20 11:23:00;;;;;;;34.83;32.67;;;9.50;99.90;;;;;;5368432;26;20480;-76
2024/04/20 11:25:33;;;;;;;34.85;32.63;;;9.50;99.90;;;;;;5416627;26;20004;-78
2024/04/20 11:28:04;;;;;;;35.60;33.42;;;9.30;99.90;;;;;;5402279;26;20008;-77
2024/04/20 11:30:39;;;;;;;35.17;32.97;;;8.90;99.90;;;;;;5360365;26;20119;-76
2024/04/20 11:33:07;;;;;;;37.13;34.70;;;8.60;99.90;;;;;;5352066;26;20582;-78
2024/04/20 11:35:34;;;;;;;37.95;35.20;;;8.60;99.90;;;;;;5327209;26;20021;-77
2024/04/20 11:38:06;;;;;;;33.55;31.25;;;8.40;99.90;;;;;;5378846;26;20699;-77
2024/04/20 11:40:33;;;;;;;34.00;31.77;;;8.10;99.90;;;;;;5381536;26;20000;-75
2024/04/20 11:43:01;;;;;;;30.83;28.58;;;7.70;99.90;;;;;;5389606;26;20062;-77
2024/04/20 11:45:29;;;;;;;31.77;29.42;;;7.50;99.90;;;;;;5385193;26;20009;-79
2024/04/20 11:47:57;;;;;;;30.08;28.08;;;7.50;99.90;;;;;;5381072;26;20018;-77
2024/04/20 11:50:32;;;;;;;32.00;29.55;;;7.50;99.90;;;;;;5385723;26;20485;-79
2024/04/20 11:55:48;;;;;;;32.15;29.35;;;7.60;99.90;;;;;;5372522;26;20460;-78
2024/04/20 11:58:15;;;;;;;32.50;30.30;;;7.70;99.90;;;;;;5370941;26;20016;-77
2024/04/20 12:00:42;;;;;;;31.92;29.73;;;7.80;99.90;;;;;;5358537;26;20631;-77
2024/04/20 12:03:13;;;;;;;33.67;31.20;;;8.10;99.90;;;;;;5380627;26;20011;-78
2024/04/20 12:05:41;;;;;;;36.72;34.35;;;8.40;99.90;;;;;;5363907;26;20014;-77
2024/04/20 12:08:08;;;;;;;35.42;32.90;;;8.70;99.90;;;;;;5360461;26;20085;-75
2024/04/20 12:10:35;;;;;;;34.05;31.92;;;9.00;99.90;;;;;;5371391;26;20047;-76
2024/04/20 12:13:02;;;;;;;34.30;31.55;;;9.30;99.90;;;;;;5368197;26;20090;-78
2024/04/20 12:15:29;;;;;;;29.42;27.23;;;9.30;99.90;;;;;;5351946;26;20016;-76
2024/04/20 12:17:56;;;;;;;34.28;31.77;;;9.20;99.90;;;;;;5377039;26;20010;-77
2024/04/20 12:20:26;;;;;;;34.03;31.65;;;9.20;99.90;;;;;;5393567;26;20003;-76
2024/04/20 12:22:53;;;;;;;34.55;32.35;;;9.00;99.90;;;;;;5379631;26;20003;-77
2024/04/20 12:25:21;;;;;;;35.25;32.72;;;9.10;99.90;;;;;;5370346;26;20404;-77
2024/04/20 12:27:48;;;;;;;37.22;34.75;;;9.30;99.90;;;;;;5379141;26;20026;-77
2024/04/20 12:30:16;;;;;;;38.25;35.88;;;9.50;99.90;;;;;;5378076;26;20077;-78
2024/04/20 12:32:44;;;;;;;34.55;32.30;;;9.70;99.90;;;;;;5376360;26;19995;-77
2024/04/20 12:35:11;;;;;;;33.95;31.65;;;10.10;99.90;;;;;;5385366;26;20018;-77
2024/04/20 12:37:38;;;;;;;34.35;32.25;;;10.20;99.90;;;;;;5373920;26;20004;-77
2024/04/20 12:40:07;;;;;;;34.72;32.33;;;10.20;99.90;;;;;;5375553;26;20007;-76
2024/04/20 12:42:36;;;;;;;34.70;32.42;;;10.00;99.90;;;;;;5384233;26;20077;-81
2024/04/20 12:45:04;;;;;;;34.83;32.17;;;9.70;99.90;;;;;;5384688;26;20002;-78
2024/04/20 12:47:31;;;;;;;33.45;31.27;;;9.30;99.90;;;;;;5391038;26;20003;-77